Time;durP1;ratioP1;P1;durP2;ratioP2;P2;SDS_P1;SDS_P2;PMS_P1;PMS_P2;Temp;Humidity;BMP_temperature;BMP_pressure;BME280_temperature;BME280_humidity;BME280_pressure;Samples;Min_cycle;Max_cycle;Signal;HPM_P1;HPM_P2
2022/03/10 00:01:25;;;;;;;56.88;26.65;;;;;;;8.80;43.76;102372.66;4911254;28;20141;-53
2022/03/10 00:03:50;;;;;;;55.40;25.95;;;;;;;8.82;43.47;102378.84;4920168;28;20109;-56
2022/03/10 00:06:16;;;;;;;55.53;26.55;;;;;;;8.79;43.88;102378.69;4924291;28;20109;-50
2022/03/10 00:08:41;;;;;;;52.88;25.25;;;;;;;8.77;44.05;102387.25;4922641;28;20495;-50
2022/03/10 00:11:07;;;;;;;58.00;26.70;;;;;;;8.67;43.86;102383.34;4920763;28;20134;-51
2022/03/10 00:13:33;;;;;;;59.42;27.23;;;;;;;8.62;44.21;102386.56;4915488;28;20657;-54
2022/03/10 00:15:59;;;;;;;55.42;25.90;;;;;;;8.56;44.05;102384.56;4917420;28;20046;-54
2022/03/10 00:18:25;;;;;;;59.40;27.17;;;;;;;8.50;44.60;102379.09;4919524;28;20070;-53
2022/03/10 00:20:50;;;;;;;57.63;26.17;;;;;;;8.43;44.82;102377.03;4922491;28;20062;-49
2022/03/10 00:23:16;;;;;;;56.92;25.50;;;;;;;8.34;44.89;102377.50;4916160;28;20345;-49
2022/03/10 00:25:41;;;;;;;57.00;25.45;;;;;;;8.46;44.55;102370.28;4913062;28;20052;-50
2022/03/10 00:28:07;;;;;;;60.00;25.55;;;;;;;8.40;44.95;102370.00;4919445;28;20581;-49
2022/03/10 00:30:32;;;;;;;56.40;26.25;;;;;;;8.38;45.15;102368.13;4920966;28;20201;-54
2022/03/10 00:32:57;;;;;;;57.15;25.98;;;;;;;8.39;44.97;102368.22;4908891;28;20043;-52
2022/03/10 00:35:24;;;;;;;64.22;26.45;;;;;;;8.36;44.73;102365.47;4910279;28;20367;-49
2022/03/10 00:37:51;;;;;;;54.10;25.38;;;;;;;8.27;45.00;102370.22;4924589;28;20039;-50
2022/03/10 00:40:17;;;;;;;57.97;26.35;;;;;;;8.27;45.15;102362.41;4914438;28;20051;-53
2022/03/10 00:42:43;;;;;;;55.25;26.00;;;;;;;8.31;45.25;102366.97;4916536;28;20626;-49
2022/03/10 00:45:10;;;;;;;58.50;26.75;;;;;;;8.17;45.81;102367.13;4914817;28;20119;-51
2022/03/10 00:47:36;;;;;;;63.55;26.35;;;;;;;8.23;45.13;102365.69;4912265;28;20416;-54
2022/03/10 00:50:02;;;;;;;54.90;25.33;;;;;;;8.17;45.18;102361.94;4920161;28;20047;-49
2022/03/10 00:52:28;;;;;;;58.13;26.35;;;;;;;8.24;45.61;102367.47;4920535;28;20189;-51
2022/03/10 00:54:54;;;;;;;60.53;25.65;;;;;;;8.20;45.32;102369.84;4907610;28;20060;-54
2022/03/10 00:57:20;;;;;;;57.53;27.30;;;;;;;8.19;45.35;102362.88;4906003;28;20040;-51
2022/03/10 00:59:45;;;;;;;58.22;25.25;;;;;;;8.25;45.31;102363.16;4915793;28;20126;-53
2022/03/10 01:02:10;;;;;;;56.33;25.73;;;;;;;8.20;45.57;102357.75;4920858;28;20354;-51
2022/03/10 01:04:36;;;;;;;54.92;25.45;;;;;;;8.21;45.45;102367.34;4919909;28;20505;-51
2022/03/10 01:07:02;;;;;;;59.88;25.52;;;;;;;8.11;45.79;102371.19;4923010;28;20498;-55
2022/03/10 01:09:27;;;;;;;57.33;26.35;;;;;;;8.09;45.94;102374.56;4910784;28;20071;-49
2022/03/10 01:11:52;;;;;;;53.00;25.42;;;;;;;8.00;45.91;102367.19;4916778;28;20051;-54
2022/03/10 01:14:18;;;;;;;56.75;25.63;;;;;;;7.94;46.28;102371.22;4920779;28;20070;-52
2022/03/10 01:16:43;;;;;;;58.95;26.08;;;;;;;7.89;46.64;102364.91;4919103;28;20043;-50
2022/03/10 01:19:09;;;;;;;54.25;25.42;;;;;;;7.92;46.45;102365.06;4921137;28;20515;-52
2022/03/10 01:21:34;;;;;;;54.05;25.35;;;;;;;7.99;46.25;102359.38;4912200;28;20051;-53
2022/03/10 01:24:00;;;;;;;52.15;25.08;;;;;;;7.97;46.66;102360.97;4920375;28;20043;-52
2022/03/10 01:26:25;;;;;;;56.05;25.85;;;;;;;7.98;46.50;102367.97;4917831;28;20043;-54
2022/03/10 01:28:50;;;;;;;58.90;25.83;;;;;;;8.00;45.94;102356.81;4920936;28;20054;-52
2022/03/10 01:31:16;;;;;;;66.82;25.95;;;;;;;7.95;46.36;102353.13;4920520;28;20072;-52
2022/03/10 01:33:42;;;;;;;56.63;26.60;;;;;;;7.90;46.53;102356.31;4914567;28;20110;-50
2022/03/10 01:36:07;;;;;;;56.95;25.55;;;;;;;7.85;46.24;102360.41;4920247;28;20043;-55
2022/03/10 01:38:33;;;;;;;52.28;24.90;;;;;;;7.85;46.63;102368.19;4914339;28;20081;-54
2022/03/10 01:40:58;;;;;;;51.45;24.33;;;;;;;7.86;46.51;102363.09;4919565;28;20063;-51
2022/03/10 01:43:23;;;;;;;60.05;25.48;;;;;;;7.88;46.55;102364.03;4911809;28;20467;-51
2022/03/10 01:45:49;;;;;;;52.80;25.05;;;;;;;7.82;46.64;102360.25;4919864;28;20095;-50
2022/03/10 01:48:14;;;;;;;50.83;24.30;;;;;;;7.81;46.82;102361.94;4919117;28;20360;-51
2022/03/10 01:50:40;;;;;;;58.08;24.95;;;;;;;7.78;46.62;102359.22;4915496;28;20362;-51
2022/03/10 01:53:05;;;;;;;57.17;25.33;;;;;;;7.75;46.88;102362.53;4919427;28;20039;-50
2022/03/10 01:55:31;;;;;;;55.70;25.17;;;;;;;7.78;46.93;102355.72;4911936;28;20050;-52
2022/03/10 01:57:58;;;;;;;53.95;24.58;;;;;;;7.73;46.66;102359.00;4916225;28;20035;-55
2022/03/10 02:00:23;;;;;;;56.05;24.88;;;;;;;7.72;47.23;102356.31;4920631;28;20512;-54
2022/03/10 02:02:49;;;;;;;53.22;24.83;;;;;;;7.74;47.03;102357.28;4918546;28;20122;-53
2022/03/10 02:05:14;;;;;;;54.10;24.92;;;;;;;7.73;47.03;102356.41;4914416;28;20070;-51
2022/03/10 02:10:28;;;;;;;55.83;25.13;;;;;;;7.62;47.86;102365.34;4921228;28;20085;-52
2022/03/10 02:12:55;;;;;;;55.05;25.00;;;;;;;7.57;47.60;102368.53;4916337;28;20070;-49
2022/03/10 02:18:10;;;;;;;57.97;25.50;;;;;;;7.55;47.84;102363.28;4918339;28;20149;-55
2022/03/10 02:20:37;;;;;;;57.17;24.83;;;;;;;7.47;48.27;102367.19;4912764;28;20502;-51
2022/03/10 02:23:03;;;;;;;56.95;26.65;;;;;;;7.48;48.04;102365.50;4918384;28;20502;-54
2022/03/10 02:25:29;;;;;;;60.00;26.70;;;;;;;7.38;48.47;102369.31;4909882;28;20087;-50
2022/03/10 02:27:55;;;;;;;57.65;25.58;;;;;;;7.38;48.34;102369.31;4918877;28;20534;-53
2022/03/10 02:30:23;;;;;;;57.22;25.70;;;;;;;7.36;48.43;102370.09;4917506;28;20051;-55
2022/03/10 02:32:48;;;;;;;59.05;25.70;;;;;;;7.26;48.92;102368.72;4918248;28;20142;-54
2022/03/10 02:35:14;;;;;;;57.60;24.95;;;;;;;7.32;48.89;102371.63;4917408;28;20417;-52
2022/03/10 02:37:40;;;;;;;58.25;26.15;;;;;;;7.25;48.84;102375.63;4915800;28;20170;-52
2022/03/10 02:40:06;;;;;;;56.00;25.30;;;;;;;7.25;48.92;102370.44;4919816;28;20051;-52
2022/03/10 02:42:32;;;;;;;58.65;26.38;;;;;;;7.19;49.03;102371.84;4919211;28;20039;-54
2022/03/10 02:44:57;;;;;;;56.17;24.67;;;;;;;7.16;48.87;102371.66;4911247;28;20046;-50
2022/03/10 02:47:23;;;;;;;49.85;23.58;;;;;;;7.08;48.74;102363.47;4910184;28;20047;-49
2022/03/10 02:49:48;;;;;;;50.33;23.52;;;;;;;7.02;48.77;102360.56;4920549;28;20035;-51
2022/03/10 02:52:14;;;;;;;48.28;22.88;;;;;;;6.95;49.03;102366.28;4913237;28;20452;-52
2022/03/10 02:54:39;;;;;;;56.25;25.00;;;;;;;6.82;49.99;102367.34;4915580;28;20402;-53
2022/03/10 02:57:05;;;;;;;49.60;23.58;;;;;;;6.74;49.78;102367.75;4918458;28;20067;-50
2022/03/10 02:59:30;;;;;;;49.22;23.45;;;;;;;6.65;50.32;102369.88;4914105;28;20047;-52
2022/03/10 03:01:56;;;;;;;52.60;24.00;;;;;;;6.55;50.36;102372.75;4916772;28;20043;-52
2022/03/10 03:04:24;;;;;;;53.50;23.88;;;;;;;6.49;50.59;102371.63;4914718;28;20044;-54
2022/03/10 03:06:50;;;;;;;53.95;24.02;;;;;;;6.46;51.00;102375.78;4919672;28;20043;-50
2022/03/10 03:09:15;;;;;;;56.50;25.52;;;;;;;6.48;51.73;102382.78;4917153;28;20468;-52
2022/03/10 03:11:41;;;;;;;57.90;26.13;;;;;;;6.62;51.49;102380.94;4911538;28;20911;-50
2022/03/10 03:14:07;;;;;;;58.45;26.92;;;;;;;6.75;50.96;102385.09;4918324;28;20047;-54
2022/03/10 03:16:32;;;;;;;56.72;26.27;;;;;;;6.87;50.38;102385.72;4919269;28;20047;-51
2022/03/10 03:18:57;;;;;;;59.63;25.92;;;;;;;6.87;50.45;102383.13;4917149;28;20047;-51
2022/03/10 03:21:25;;;;;;;57.33;24.67;;;;;;;6.88;50.31;102388.41;4911008;28;20081;-50
2022/03/10 03:23:51;;;;;;;57.00;25.83;;;;;;;6.86;50.72;102389.13;4909376;28;20497;-51
2022/03/10 03:26:16;;;;;;;58.40;26.90;;;;;;;6.75;50.95;102391.16;4922414;28;20090;-54
2022/03/10 03:28:43;;;;;;;53.00;25.50;;;;;;;6.50;51.72;102393.25;4922808;28;20082;-51
2022/03/10 03:31:09;;;;;;;55.22;25.77;;;;;;;6.31;53.61;102390.47;4922723;28;20043;-54
2022/03/10 03:33:35;;;;;;;57.05;26.13;;;;;;;6.22;53.26;102387.41;4915510;28;20325;-54
2022/03/10 03:36:00;;;;;;;58.53;26.20;;;;;;;6.25;53.05;102383.25;4919351;28;20799;-51
2022/03/10 03:38:26;;;;;;;58.95;25.75;;;;;;;6.47;52.22;102398.25;4919018;28;20047;-54
2022/03/10 03:40:54;;;;;;;56.97;25.40;;;;;;;6.51;52.07;102401.13;4923471;28;20523;-50
2022/03/10 03:43:19;;;;;;;56.63;26.25;;;;;;;6.52;52.14;102402.00;4911477;28;20522;-51
2022/03/10 03:45:45;;;;;;;59.13;26.00;;;;;;;6.53;52.12;102389.94;4918459;28;20051;-53
2022/03/10 03:48:10;;;;;;;60.60;26.45;;;;;;;6.53;52.39;102403.75;4920346;28;20491;-54
2022/03/10 03:50:36;;;;;;;59.00;26.02;;;;;;;6.51;52.19;102402.81;4924228;28;20342;-50
2022/03/10 03:53:01;;;;;;;53.42;25.10;;;;;;;6.53;52.16;102401.16;4913742;28;21316;-54
2022/03/10 03:55:27;;;;;;;54.63;25.27;;;;;;;6.53;52.09;102409.84;4914755;28;20510;-51
2022/03/10 03:57:52;;;;;;;58.00;26.23;;;;;;;6.47;52.53;102409.50;4916620;28;20342;-51
2022/03/10 04:00:19;;;;;;;58.42;26.55;;;;;;;6.43;52.70;102412.75;4920157;28;20174;-53
2022/03/10 04:02:45;;;;;;;57.55;25.60;;;;;;;6.45;53.03;102410.25;4922925;28;20043;-52
2022/03/10 04:05:12;;;;;;;59.25;24.80;;;;;;;6.43;53.09;102409.28;4920710;28;20560;-53
2022/03/10 04:07:38;;;;;;;60.13;25.38;;;;;;;6.39;53.42;102415.09;4914986;28;22075;-51
2022/03/10 04:10:05;;;;;;;57.05;25.48;;;;;;;6.35;53.33;102411.44;4922301;28;20043;-53
2022/03/10 04:12:32;;;;;;;56.88;25.40;;;;;;;6.31;53.42;102413.78;4916372;28;20043;-53
2022/03/10 04:14:57;;;;;;;57.55;26.33;;;;;;;6.27;53.52;102419.59;4916442;28;20035;-53
2022/03/10 04:17:23;;;;;;;59.50;26.33;;;;;;;6.19;53.82;102415.69;4912194;28;20050;-54
2022/03/10 04:19:48;;;;;;;55.13;25.83;;;;;;;6.17;54.51;102417.28;4921897;28;20406;-51
2022/03/10 04:22:14;;;;;;;56.72;26.13;;;;;;;6.16;54.27;102425.91;4921376;28;20082;-52
2022/03/10 04:24:39;;;;;;;60.47;26.33;;;;;;;6.13;54.46;102417.94;4920892;28;20047;-51
2022/03/10 04:27:04;;;;;;;56.70;25.55;;;;;;;6.06;54.38;102417.59;4915487;28;20117;-54
2022/03/10 04:29:30;;;;;;;58.70;26.80;;;;;;;6.05;54.75;102422.69;4912135;28;20488;-50
2022/03/10 04:31:55;;;;;;;58.67;26.58;;;;;;;6.05;54.45;102428.75;4917475;28;20129;-55
2022/03/10 04:34:20;;;;;;;57.72;26.35;;;;;;;6.15;54.27;102429.28;4923715;28;20047;-52
2022/03/10 04:36:46;;;;;;;58.60;26.35;;;;;;;6.07;54.90;102432.34;4918530;28;20037;-54
2022/03/10 04:39:13;;;;;;;57.45;25.92;;;;;;;6.10;54.12;102422.13;4919853;28;20041;-53
2022/03/10 04:41:39;;;;;;;59.00;26.08;;;;;;;6.10;54.35;102429.91;4911979;28;20141;-54
2022/03/10 04:44:04;;;;;;;60.10;26.40;;;;;;;6.09;54.28;102427.25;4919982;28;20039;-54
2022/03/10 04:46:30;;;;;;;65.25;26.90;;;;;;;6.05;54.37;102423.56;4917625;28;20214;-52
2022/03/10 04:48:55;;;;;;;59.08;25.88;;;;;;;5.96;54.78;102415.31;4918855;28;20051;-52
2022/03/10 04:51:20;;;;;;;56.85;26.70;;;;;;;5.89;54.96;102418.34;4899230;28;20054;-54
2022/03/10 04:53:46;;;;;;;58.10;26.58;;;;;;;5.91;54.75;102416.75;4917855;28;20043;-49
2022/03/10 04:56:12;;;;;;;59.10;26.75;;;;;;;5.93;54.94;102411.63;4921238;28;20046;-51
2022/03/10 04:58:37;;;;;;;67.07;26.80;;;;;;;5.95;54.83;102417.81;4921047;28;20043;-51
2022/03/10 05:01:02;;;;;;;57.58;27.08;;;;;;;5.88;55.01;102413.06;4918111;28;20178;-52
2022/03/10 05:03:28;;;;;;;61.72;27.25;;;;;;;5.84;55.38;102417.16;4917073;28;20163;-53
2022/03/10 05:05:53;;;;;;;62.10;26.85;;;;;;;5.86;55.15;102412.06;4911679;28;20529;-55
2022/03/10 05:08:18;;;;;;;56.83;26.42;;;;;;;5.85;55.29;102407.72;4922345;28;20051;-52
2022/03/10 05:10:44;;;;;;;62.45;27.75;;;;;;;5.84;55.29;102405.91;4920517;28;20051;-52
2022/03/10 05:13:09;;;;;;;64.30;27.05;;;;;;;5.80;55.07;102403.94;4911081;28;20031;-52
2022/03/10 05:15:35;;;;;;;57.33;26.42;;;;;;;5.84;55.13;102412.00;4915231;28;20891;-51
2022/03/10 05:18:03;;;;;;;59.03;27.27;;;;;;;5.79;55.63;102404.78;4916589;28;20149;-50
2022/03/10 05:20:29;;;;;;;57.50;26.50;;;;;;;5.80;55.12;102414.28;4921124;28;20129;-52
2022/03/10 05:22:55;;;;;;;56.78;26.08;;;;;;;5.75;55.21;102414.03;4919927;28;20051;-50
2022/03/10 05:25:23;;;;;;;57.35;26.98;;;;;;;5.68;55.55;102417.97;4913914;28;20099;-51
2022/03/10 05:27:50;;;;;;;59.67;26.85;;;;;;;5.71;55.67;102420.75;4913494;28;20261;-51
2022/03/10 05:30:17;;;;;;;56.72;26.13;;;;;;;5.72;55.76;102416.47;4918817;28;20331;-51
2022/03/10 05:32:42;;;;;;;58.45;26.67;;;;;;;5.68;55.33;102417.06;4920093;28;20491;-53
2022/03/10 05:35:10;;;;;;;55.75;26.23;;;;;;;5.65;55.91;102422.09;4919416;28;20243;-52
2022/03/10 05:37:36;;;;;;;57.78;26.80;;;;;;;5.61;56.17;102426.19;4918958;28;20165;-51
2022/03/10 05:40:06;;;;;;;59.63;26.55;;;;;;;5.64;55.79;102420.31;4917034;28;20055;-50
2022/03/10 05:42:32;;;;;;;60.40;26.85;;;;;;;5.56;55.78;102429.31;4916888;28;20510;-53
2022/03/10 05:44:57;;;;;;;61.15;27.65;;;;;;;5.60;56.12;102423.53;4918978;28;20147;-51
2022/03/10 05:47:22;;;;;;;59.13;26.90;;;;;;;5.61;55.60;102423.59;4916037;28;20047;-53
2022/03/10 05:49:49;;;;;;;56.08;26.58;;;;;;;5.53;56.25;102427.44;4919210;28;20047;-53
2022/03/10 05:52:14;;;;;;;59.15;27.25;;;;;;;5.45;55.87;102418.34;4914097;28;20045;-51
2022/03/10 05:54:40;;;;;;;57.95;28.35;;;;;;;5.50;56.40;102423.78;4919560;28;20031;-54
2022/03/10 05:57:12;;;;;;;59.05;26.85;;;;;;;5.43;56.18;102413.91;4912105;28;20043;-53
2022/03/10 05:59:37;;;;;;;61.47;27.15;;;;;;;5.43;56.22;102411.31;4910301;28;20189;-52
2022/03/10 06:02:03;;;;;;;58.72;26.65;;;;;;;5.37;56.48;102417.00;4922271;28;20078;-53
2022/03/10 06:04:28;;;;;;;60.83;27.42;;;;;;;5.39;56.81;102414.50;4910923;28;20468;-48
2022/03/10 06:06:53;;;;;;;56.25;26.05;;;;;;;5.31;57.26;102419.22;4920212;28;20575;-52
2022/03/10 06:09:19;;;;;;;58.72;26.73;;;;;;;5.43;56.43;102414.75;4911865;28;21308;-52
2022/03/10 06:11:44;;;;;;;58.60;26.75;;;;;;;5.28;57.42;102411.28;4915124;28;20570;-51
2022/03/10 06:14:12;;;;;;;60.50;28.38;;;;;;;5.44;56.80;102420.81;4919901;28;20043;-54
2022/03/10 06:16:38;;;;;;;57.90;26.83;;;;;;;5.40;56.76;102422.34;4917927;28;20039;-54
2022/03/10 06:19:04;;;;;;;60.92;27.00;;;;;;;5.51;56.02;102420.38;4917130;28;20463;-53
2022/03/10 06:21:29;;;;;;;59.67;27.70;;;;;;;5.47;56.73;102421.03;4910751;28;20051;-53
2022/03/10 06:23:55;;;;;;;58.50;27.55;;;;;;;5.48;56.66;102421.13;4917564;28;20051;-51
2022/03/10 06:26:21;;;;;;;61.13;27.85;;;;;;;5.44;56.93;102420.81;4914854;28;20058;-53
2022/03/10 06:28:47;;;;;;;59.10;27.38;;;;;;;5.37;56.83;102416.13;4917996;28;20046;-50
2022/03/10 06:31:13;;;;;;;58.60;26.73;;;;;;;5.38;57.23;102415.28;4917376;28;20110;-54
2022/03/10 06:33:38;;;;;;;60.35;27.58;;;;;;;5.40;56.99;102414.59;4913929;28;21717;-52
2022/03/10 06:36:05;;;;;;;60.78;27.92;;;;;;;5.35;57.00;102423.78;4919860;28;20051;-52
2022/03/10 06:38:30;;;;;;;57.88;25.73;;;;;;;5.34;57.33;102419.41;4918049;28;20053;-52
2022/03/10 06:40:56;;;;;;;63.13;27.50;;;;;;;5.48;56.40;102423.72;4916168;28;20436;-51
2022/03/10 06:43:21;;;;;;;58.33;27.05;;;;;;;5.58;56.55;102415.66;4911884;28;20580;-52
2022/03/10 06:45:46;;;;;;;58.50;26.92;;;;;;;5.71;56.06;102422.44;4919046;28;20043;-53
2022/03/10 06:48:12;;;;;;;59.60;26.85;;;;;;;6.22;55.00;102419.31;4913036;28;20047;-50
2022/03/10 06:50:37;;;;;;;55.97;26.85;;;;;;;6.53;54.05;102425.38;4913563;28;20050;-53
2022/03/10 06:53:03;;;;;;;56.97;26.40;;;;;;;6.53;53.75;102426.22;4921065;28;20178;-54
2022/03/10 06:55:29;;;;;;;60.10;27.08;;;;;;;6.53;53.58;102426.22;4915411;28;20050;-54
2022/03/10 06:57:55;;;;;;;58.25;27.02;;;;;;;6.81;53.25;102430.38;4918352;28;20538;-54
2022/03/10 07:00:21;;;;;;;53.50;26.80;;;;;;;7.12;51.91;102434.56;4920328;28;20046;-52
2022/03/10 07:02:47;;;;;;;54.50;26.40;;;;;;;7.71;50.25;102435.91;4915365;28;20103;-53
2022/03/10 07:05:14;;;;;;;55.20;26.15;;;;;;;8.08;49.07;102428.19;4918354;28;20129;-51
2022/03/10 07:07:39;;;;;;;54.63;26.30;;;;;;;8.29;48.56;102441.34;4920736;28;20077;-53
2022/03/10 07:10:05;;;;;;;51.92;26.05;;;;;;;8.66;48.14;102427.50;4918590;28;20066;-51
2022/03/10 07:12:38;;;;;;;52.35;25.92;;;;;;;8.90;47.32;102432.06;4923585;28;20055;-52
2022/03/10 07:15:05;;;;;;;51.63;26.70;;;;;;;8.99;47.59;102438.50;4918904;28;20082;-54
2022/03/10 07:17:30;;;;;;;51.47;26.38;;;;;;;9.07;46.63;102437.16;4916736;28;20050;-54
2022/03/10 07:19:56;;;;;;;50.38;26.27;;;;;;;9.00;46.97;102445.50;4920029;28;20050;-50
2022/03/10 07:22:21;;;;;;;51.67;25.85;;;;;;;8.75;47.21;102441.78;4920815;28;20158;-53
2022/03/10 07:24:46;;;;;;;51.88;25.90;;;;;;;8.77;47.69;102450.56;4913466;28;20209;-55
2022/03/10 07:27:12;;;;;;;54.42;26.20;;;;;;;8.74;47.58;102452.13;4918064;28;20588;-51
2022/03/10 07:29:38;;;;;;;51.60;26.60;;;;;;;8.58;47.67;102455.72;4915729;28;23957;-53
2022/03/10 07:32:04;;;;;;;53.40;27.02;;;;;;;8.25;48.63;102446.28;4914094;28;20054;-53
2022/03/10 07:34:29;;;;;;;52.03;26.38;;;;;;;8.26;48.53;102453.28;4920424;28;20109;-52
2022/03/10 07:36:54;;;;;;;57.53;26.95;;;;;;;8.08;49.56;102451.59;4918419;28;20377;-52
2022/03/10 07:39:20;;;;;;;50.97;25.85;;;;;;;7.61;49.91;102446.66;4913470;28;20043;-55
2022/03/10 07:41:45;;;;;;;63.58;27.85;;;;;;;7.68;50.23;102450.44;4920106;28;20055;-54
2022/03/10 07:44:11;;;;;;;55.80;27.50;;;;;;;7.60;50.34;102450.06;4918536;28;20051;-55
2022/03/10 07:46:36;;;;;;;53.95;27.08;;;;;;;7.62;50.82;102445.81;4912845;28;20071;-51
2022/03/10 07:49:03;;;;;;;54.58;26.65;;;;;;;7.66;50.45;102454.66;4915140;28;20054;-52
2022/03/10 07:51:29;;;;;;;52.53;27.13;;;;;;;7.50;51.06;102444.34;4903789;28;20043;-52
2022/03/10 07:53:54;;;;;;;57.97;26.33;;;;;;;7.67;50.45;102451.25;4919042;28;20047;-53
2022/03/10 07:56:20;;;;;;;56.38;27.50;;;;;;;7.65;50.44;102447.69;4919269;28;20062;-51
2022/03/10 07:58:45;;;;;;;56.67;26.50;;;;;;;7.89;50.39;102448.00;4907519;28;20051;-54
2022/03/10 08:01:11;;;;;;;55.60;26.85;;;;;;;7.93;49.81;102449.97;4918085;28;20047;-54
2022/03/10 08:03:38;;;;;;;55.70;27.10;;;;;;;8.08;49.87;102455.88;4911857;28;20043;-54
2022/03/10 08:06:06;;;;;;;56.40;27.05;;;;;;;8.06;49.77;102441.91;4910091;28;20074;-53
2022/03/10 08:08:31;;;;;;;54.70;26.63;;;;;;;8.11;49.94;102451.72;4913549;28;20042;-53
2022/03/10 08:10:56;;;;;;;55.20;27.10;;;;;;;8.13;49.37;102450.09;4914519;28;20043;-51
2022/03/10 08:13:26;;;;;;;54.40;26.45;;;;;;;8.37;49.63;102447.81;4909297;28;20839;-57
2022/03/10 08:15:53;;;;;;;52.58;26.92;;;;;;;8.47;49.31;102450.03;4914727;28;20271;-56
2022/03/10 08:18:19;;;;;;;53.80;26.73;;;;;;;8.53;49.46;102447.72;4918285;28;20062;-53
2022/03/10 08:20:44;;;;;;;52.53;26.70;;;;;;;8.60;49.24;102438.47;4914148;28;20266;-53
2022/03/10 08:23:10;;;;;;;53.60;27.45;;;;;;;8.71;48.94;102436.38;4917626;28;20045;-52
2022/03/10 08:25:36;;;;;;;50.03;26.65;;;;;;;8.80;49.80;102431.59;4908254;28;20058;-53
2022/03/10 08:28:03;;;;;;;56.75;27.48;;;;;;;9.11;48.60;102424.34;4918967;28;20295;-53
2022/03/10 08:30:28;;;;;;;54.20;27.45;;;;;;;8.95;48.94;102427.97;4919487;28;20043;-52
2022/03/10 08:32:53;;;;;;;54.20;27.48;;;;;;;9.17;48.24;102422.00;4917564;28;20105;-49
2022/03/10 08:35:19;;;;;;;53.53;26.33;;;;;;;9.10;47.92;102419.94;4912273;28;20119;-55
2022/03/10 08:37:50;;;;;;;52.13;27.27;;;;;;;9.17;48.25;102416.78;4919381;28;20398;-53
2022/03/10 08:40:18;;;;;;;55.90;27.83;;;;;;;9.50;47.79;102424.28;4917300;28;20082;-52
2022/03/10 08:42:44;;;;;;;51.25;26.60;;;;;;;9.16;48.28;102417.59;4919656;28;20138;-53
2022/03/10 08:45:10;;;;;;;56.53;27.17;;;;;;;9.53;47.84;102412.25;4910824;28;20125;-53
2022/03/10 08:47:35;;;;;;;55.17;27.52;;;;;;;9.84;47.37;102419.63;4907525;28;21630;-54
2022/03/10 08:50:01;;;;;;;54.47;27.50;;;;;;;10.08;47.82;102417.13;4914592;28;20323;-51
2022/03/10 08:52:26;;;;;;;55.33;27.13;;;;;;;10.33;47.01;102424.22;4919834;28;20050;-49
2022/03/10 08:54:52;;;;;;;52.92;28.23;;;;;;;10.39;45.29;102422.75;4920230;28;20562;-54
2022/03/10 08:57:18;;;;;;;54.47;27.83;;;;;;;10.42;46.17;102416.78;4909900;28;21632;-53
2022/03/10 08:59:45;;;;;;;54.95;27.50;;;;;;;10.61;45.72;102419.25;4920456;28;20043;-54
2022/03/10 09:02:12;;;;;;;55.75;27.85;;;;;;;10.74;45.47;102417.97;4915890;28;20603;-53
2022/03/10 09:04:37;;;;;;;50.22;26.35;;;;;;;10.63;45.63;102412.34;4919140;28;20339;-52
2022/03/10 09:07:03;;;;;;;53.75;27.20;;;;;;;10.79;45.72;102409.50;4914461;28;20479;-51
2022/03/10 09:09:28;;;;;;;53.05;27.42;;;;;;;10.67;45.88;102413.38;4911520;28;21181;-55
2022/03/10 09:11:58;;;;;;;55.13;26.60;;;;;;;10.99;45.36;102407.59;4917068;28;20168;-50
2022/03/10 09:14:23;;;;;;;53.75;27.67;;;;;;;10.95;45.41;102414.44;4912088;28;20039;-52
2022/03/10 09:16:51;;;;;;;54.50;26.85;;;;;;;11.24;44.65;102415.47;4906714;28;20411;-53
2022/03/10 09:19:18;;;;;;;54.65;27.67;;;;;;;11.12;44.67;102409.81;4915109;28;20142;-53
2022/03/10 09:21:44;;;;;;;54.05;27.95;;;;;;;11.33;44.98;102407.97;4916028;28;20054;-50
2022/03/10 09:24:10;;;;;;;55.78;27.83;;;;;;;11.40;44.71;102404.72;4921167;28;20515;-53
2022/03/10 09:26:35;;;;;;;54.38;27.10;;;;;;;11.41;44.21;102400.38;4911239;28;20153;-51
2022/03/10 09:29:01;;;;;;;51.67;27.77;;;;;;;11.47;44.47;102397.97;4912485;28;20137;-51
2022/03/10 09:31:27;;;;;;;50.30;26.85;;;;;;;11.61;44.43;102398.44;4908984;28;20433;-51
2022/03/10 09:33:53;;;;;;;49.80;27.13;;;;;;;11.64;44.38;102402.06;4914350;28;20479;-54
2022/03/10 09:36:19;;;;;;;50.95;26.65;;;;;;;11.94;44.17;102397.00;4912300;28;20122;-54
2022/03/10 09:38:45;;;;;;;50.47;27.27;;;;;;;12.15;44.00;102400.25;4912652;28;20047;-53
2022/03/10 09:41:10;;;;;;;49.30;27.50;;;;;;;12.04;43.66;102392.94;4916429;28;20165;-54
2022/03/10 09:43:37;;;;;;;50.65;26.23;;;;;;;12.19;43.29;102389.09;4913295;28;23019;-50
2022/03/10 09:46:03;;;;;;;52.75;27.38;;;;;;;12.17;43.48;102395.97;4915497;28;20454;-54
2022/03/10 09:48:30;;;;;;;49.90;27.75;;;;;;;12.38;43.36;102390.50;4921714;28;20055;-50
2022/03/10 09:50:55;;;;;;;52.90;27.60;;;;;;;12.37;43.35;102390.47;4918764;28;20055;-54
2022/03/10 09:53:21;;;;;;;50.78;28.42;;;;;;;12.59;43.53;102392.88;4910830;28;20388;-52
2022/03/10 09:55:46;;;;;;;50.60;27.00;;;;;;;12.56;43.61;102388.44;4919964;28;20533;-54
2022/03/10 09:58:12;;;;;;;54.38;27.42;;;;;;;12.63;43.05;102389.50;4917655;28;20039;-54
2022/03/10 10:00:37;;;;;;;52.60;27.73;;;;;;;12.84;43.62;102387.50;4914248;28;20142;-52
2022/03/10 10:03:03;;;;;;;47.35;26.98;;;;;;;12.76;42.69;102375.03;4917452;28;20556;-55
2022/03/10 10:05:31;;;;;;;48.47;27.35;;;;;;;13.01;42.76;102383.63;4912247;28;20043;-52
2022/03/10 10:08:03;;;;;;;50.25;27.33;;;;;;;13.28;42.22;102382.63;4917655;28;20054;-52
2022/03/10 10:10:30;;;;;;;52.22;27.83;;;;;;;13.39;41.97;102382.06;4918403;28;20246;-50
2022/03/10 10:12:56;;;;;;;49.03;27.63;;;;;;;13.11;42.83;102376.03;4918976;28;20051;-50
2022/03/10 10:15:21;;;;;;;51.72;28.35;;;;;;;13.24;42.66;102376.41;4909587;28;20035;-52
2022/03/10 10:17:55;;;;;;;49.88;27.65;;;;;;;13.30;42.34;102373.94;4910449;28;20058;-54
2022/03/10 10:20:21;;;;;;;50.80;27.70;;;;;;;13.43;42.68;102369.03;4917355;28;20137;-53
2022/03/10 10:22:48;;;;;;;51.20;27.40;;;;;;;13.49;42.01;102363.94;4918407;28;20221;-53
2022/03/10 10:25:20;;;;;;;51.17;26.10;;;;;;;13.46;42.52;102369.13;4916362;28;20541;-54
2022/03/10 10:27:46;;;;;;;51.53;27.58;;;;;;;13.58;42.22;102361.56;4919651;28;20164;-52
2022/03/10 10:30:12;;;;;;;52.00;28.23;;;;;;;13.38;42.91;102361.06;4923588;28;20051;-51
2022/03/10 10:32:55;;;;;;;49.92;27.42;;;;;;;13.53;41.87;102368.44;4923181;28;20051;-51
2022/03/10 10:35:21;;;;;;;53.30;27.10;;;;;;;13.69;42.41;102360.97;4913693;28;20157;-53
2022/03/10 10:37:50;;;;;;;60.08;31.70;;;;;;;13.77;41.61;102363.78;4924768;28;20574;-52
2022/03/10 10:40:27;;;;;;;59.55;32.03;;;;;;;13.65;42.42;102367.00;4914509;28;20171;-50
2022/03/10 10:42:54;;;;;;;53.40;27.48;;;;;;;13.99;42.25;102363.44;4910336;28;20047;-50
2022/03/10 10:45:34;;;;;;;53.55;29.52;;;;;;;14.13;41.83;102361.13;4914991;28;20043;-51
2022/03/10 10:48:05;;;;;;;49.92;27.77;;;;;;;14.21;41.21;102359.53;4908801;28;20073;-49
2022/03/10 10:50:35;;;;;;;52.95;27.60;;;;;;;14.22;41.68;102353.44;4919159;28;20585;-52
2022/03/10 10:53:02;;;;;;;47.60;26.33;;;;;;;14.32;40.87;102358.06;4924344;28;20050;-52
2022/03/10 10:55:38;;;;;;;53.70;27.90;;;;;;;14.41;40.75;102346.88;4915323;28;20399;-51
2022/03/10 10:58:13;;;;;;;51.70;27.48;;;;;;;14.23;41.28;102347.34;4918858;28;20043;-51
2022/03/10 11:00:46;;;;;;;47.65;26.95;;;;;;;14.45;41.35;102346.13;4914213;28;20059;-49
2022/03/10 11:03:31;;;;;;;45.63;27.47;;;;;;;14.36;40.90;102351.13;4918706;28;20620;-54
2022/03/10 11:05:58;;;;;;;48.80;26.17;;;;;;;14.35;40.75;102338.84;4918778;28;20077;-54
2022/03/10 11:08:25;;;;;;;47.75;25.73;;;;;;;14.37;41.14;102331.91;4920743;28;20517;-52
2022/03/10 11:10:52;;;;;;;45.85;25.58;;;;;;;14.38;40.16;102333.72;4922268;28;20089;-51
2022/03/10 11:13:18;;;;;;;44.83;25.30;;;;;;;14.56;40.62;102336.72;4917483;28;20061;-53
2022/03/10 11:15:45;;;;;;;49.15;25.88;;;;;;;14.77;39.96;102328.38;4917439;28;20062;-52